sensor_id;sensor_type;location;lat;lon;timestamp;P1;durP1;ratioP1;P2;durP2;ratioP2
41219;SDS011;26951;47.338;9.196;2023-04-25T00:00:12;5.22;;;3.80;;
41219;SDS011;26951;47.338;9.196;2023-04-25T00:02:56;5.40;;;3.13;;
41219;SDS011;26951;47.338;9.196;2023-04-25T00:05:40;5.68;;;3.53;;
41219;SDS011;26951;47.338;9.196;2023-04-25T00:08:25;3.60;;;3.10;;
41219;SDS011;26951;47.338;9.196;2023-04-25T00:11:09;3.88;;;3.05;;
41219;SDS011;26951;47.338;9.196;2023-04-25T00:13:53;4.07;;;3.33;;
41219;SDS011;26951;47.338;9.196;2023-04-25T00:16:38;6.63;;;4.30;;
41219;SDS011;26951;47.338;9.196;2023-04-25T00:19:22;6.93;;;3.50;;
41219;SDS011;26951;47.338;9.196;2023-04-25T00:22:06;4.47;;;3.40;;
41219;SDS011;26951;47.338;9.196;2023-04-25T00:24:50;5.25;;;3.63;;
41219;SDS011;26951;47.338;9.196;2023-04-25T00:27:36;3.97;;;3.47;;
41219;SDS011;26951;47.338;9.196;2023-04-25T00:30:22;4.10;;;3.70;;
41219;SDS011;26951;47.338;9.196;2023-04-25T00:33:07;9.07;;;3.70;;
41219;SDS011;26951;47.338;9.196;2023-04-25T00:35:51;4.82;;;4.00;;
41219;SDS011;26951;47.338;9.196;2023-04-25T00:38:35;5.60;;;4.05;;
41219;SDS011;26951;47.338;9.196;2023-04-25T00:41:19;4.45;;;3.47;;
41219;SDS011;26951;47.338;9.196;2023-04-25T00:44:03;4.05;;;3.50;;
41219;SDS011;26951;47.338;9.196;2023-04-25T00:46:50;4.95;;;3.92;;
41219;SDS011;26951;47.338;9.196;2023-04-25T00:49:35;4.30;;;3.45;;
41219;SDS011;26951;47.338;9.196;2023-04-25T00:52:19;6.65;;;3.33;;
41219;SDS011;26951;47.338;9.196;2023-04-25T00:55:04;5.35;;;4.10;;
41219;SDS011;26951;47.338;9.196;2023-04-25T00:57:48;4.28;;;3.17;;
41219;SDS011;26951;47.338;9.196;2023-04-25T01:04:19;5.63;;;3.58;;
41219;SDS011;26951;47.338;9.196;2023-04-25T01:07:03;6.53;;;3.65;;
41219;SDS011;26951;47.338;9.196;2023-04-25T01:09:48;4.82;;;3.22;;
41219;SDS011;26951;47.338;9.196;2023-04-25T01:12:34;3.88;;;3.50;;
41219;SDS011;26951;47.338;9.196;2023-04-25T01:15:19;4.47;;;3.20;;
41219;SDS011;26951;47.338;9.196;2023-04-25T01:18:04;3.78;;;3.00;;
41219;SDS011;26951;47.338;9.196;2023-04-25T01:20:50;7.47;;;3.58;;
41219;SDS011;26951;47.338;9.196;2023-04-25T01:23:36;7.30;;;3.55;;
41219;SDS011;26951;47.338;9.196;2023-04-25T01:26:22;3.83;;;3.17;;
41219;SDS011;26951;47.338;9.196;2023-04-25T01:29:07;4.78;;;3.65;;
41219;SDS011;26951;47.338;9.196;2023-04-25T01:31:51;4.90;;;3.67;;
41219;SDS011;26951;47.338;9.196;2023-04-25T01:34:36;4.43;;;3.20;;
41219;SDS011;26951;47.338;9.196;2023-04-25T01:37:20;5.10;;;3.33;;
41219;SDS011;26951;47.338;9.196;2023-04-25T01:40:04;6.38;;;3.90;;
41219;SDS011;26951;47.338;9.196;2023-04-25T01:42:50;4.50;;;3.33;;
41219;SDS011;26951;47.338;9.196;2023-04-25T01:45:34;3.80;;;3.40;;
41219;SDS011;26951;47.338;9.196;2023-04-25T01:48:20;6.13;;;3.20;;
41219;SDS011;26951;47.338;9.196;2023-04-25T01:51:04;5.95;;;3.47;;
41219;SDS011;26951;47.338;9.196;2023-04-25T01:53:48;6.97;;;3.33;;
41219;SDS011;26951;47.338;9.196;2023-04-25T01:56:34;4.17;;;3.07;;
41219;SDS011;26951;47.338;9.196;2023-04-25T01:59:21;6.70;;;3.05;;
41219;SDS011;26951;47.338;9.196;2023-04-25T02:02:05;4.53;;;2.92;;
41219;SDS011;26951;47.338;9.196;2023-04-25T02:04:49;4.57;;;2.92;;
41219;SDS011;26951;47.338;9.196;2023-04-25T02:07:33;8.18;;;3.35;;
41219;SDS011;26951;47.338;9.196;2023-04-25T02:10:17;4.95;;;3.10;;
41219;SDS011;26951;47.338;9.196;2023-04-25T02:13:01;4.60;;;3.05;;
41219;SDS011;26951;47.338;9.196;2023-04-25T02:15:46;3.85;;;2.92;;
41219;SDS011;26951;47.338;9.196;2023-04-25T02:18:30;6.72;;;3.30;;
41219;SDS011;26951;47.338;9.196;2023-04-25T02:21:14;3.13;;;2.80;;
41219;SDS011;26951;47.338;9.196;2023-04-25T02:23:59;5.75;;;2.90;;
41219;SDS011;26951;47.338;9.196;2023-04-25T02:26:43;3.65;;;2.95;;
41219;SDS011;26951;47.338;9.196;2023-04-25T02:29:28;3.85;;;2.97;;
41219;SDS011;26951;47.338;9.196;2023-04-25T02:32:12;4.95;;;2.80;;
41219;SDS011;26951;47.338;9.196;2023-04-25T02:34:57;3.35;;;2.60;;
41219;SDS011;26951;47.338;9.196;2023-04-25T02:37:47;5.00;;;2.53;;
41219;SDS011;26951;47.338;9.196;2023-04-25T02:40:31;4.78;;;2.50;;
41219;SDS011;26951;47.338;9.196;2023-04-25T02:43:15;3.70;;;3.13;;
41219;SDS011;26951;47.338;9.196;2023-04-25T02:45:59;4.47;;;2.67;;
41219;SDS011;26951;47.338;9.196;2023-04-25T02:48:43;3.40;;;2.33;;
41219;SDS011;26951;47.338;9.196;2023-04-25T02:51:27;2.47;;;2.20;;
41219;SDS011;26951;47.338;9.196;2023-04-25T02:54:12;3.40;;;2.70;;
41219;SDS011;26951;47.338;9.196;2023-04-25T02:56:56;3.42;;;3.00;;
41219;SDS011;26951;47.338;9.196;2023-04-25T02:59:40;3.55;;;2.83;;
41219;SDS011;26951;47.338;9.196;2023-04-25T03:02:24;3.35;;;2.67;;
41219;SDS011;26951;47.338;9.196;2023-04-25T03:05:08;4.05;;;2.60;;
41219;SDS011;26951;47.338;9.196;2023-04-25T03:07:52;3.17;;;2.55;;
41219;SDS011;26951;47.338;9.196;2023-04-25T03:10:36;4.82;;;2.70;;
41219;SDS011;26951;47.338;9.196;2023-04-25T03:13:21;3.88;;;2.92;;
41219;SDS011;26951;47.338;9.196;2023-04-25T03:16:05;6.22;;;2.70;;
41219;SDS011;26951;47.338;9.196;2023-04-25T03:18:49;2.83;;;2.53;;
41219;SDS011;26951;47.338;9.196;2023-04-25T03:21:34;6.35;;;3.50;;
41219;SDS011;26951;47.338;9.196;2023-04-25T03:24:19;2.55;;;2.30;;
41219;SDS011;26951;47.338;9.196;2023-04-25T03:27:03;3.33;;;2.97;;
41219;SDS011;26951;47.338;9.196;2023-04-25T03:29:47;5.22;;;2.88;;
41219;SDS011;26951;47.338;9.196;2023-04-25T03:32:31;3.92;;;2.22;;
41219;SDS011;26951;47.338;9.196;2023-04-25T03:35:15;4.47;;;2.90;;
41219;SDS011;26951;47.338;9.196;2023-04-25T03:38:00;2.72;;;2.42;;
41219;SDS011;26951;47.338;9.196;2023-04-25T03:40:44;3.97;;;2.60;;
41219;SDS011;26951;47.338;9.196;2023-04-25T03:43:28;4.30;;;2.80;;
41219;SDS011;26951;47.338;9.196;2023-04-25T03:46:12;5.75;;;3.10;;
41219;SDS011;26951;47.338;9.196;2023-04-25T03:48:56;3.70;;;2.50;;
41219;SDS011;26951;47.338;9.196;2023-04-25T03:51:41;3.50;;;3.20;;
41219;SDS011;26951;47.338;9.196;2023-04-25T03:54:25;2.50;;;2.20;;
41219;SDS011;26951;47.338;9.196;2023-04-25T03:57:09;3.55;;;2.42;;
41219;SDS011;26951;47.338;9.196;2023-04-25T03:59:53;3.53;;;2.47;;
41219;SDS011;26951;47.338;9.196;2023-04-25T04:02:38;5.82;;;2.47;;
41219;SDS011;26951;47.338;9.196;2023-04-25T04:05:22;4.47;;;2.47;;
41219;SDS011;26951;47.338;9.196;2023-04-25T04:08:07;3.45;;;3.03;;
41219;SDS011;26951;47.338;9.196;2023-04-25T04:10:51;3.05;;;2.55;;
41219;SDS011;26951;47.338;9.196;2023-04-25T04:13:35;3.20;;;2.58;;
41219;SDS011;26951;47.338;9.196;2023-04-25T04:16:19;3.88;;;2.55;;
41219;SDS011;26951;47.338;9.196;2023-04-25T04:19:04;6.50;;;2.85;;
41219;SDS011;26951;47.338;9.196;2023-04-25T04:21:48;5.03;;;2.22;;
41219;SDS011;26951;47.338;9.196;2023-04-25T04:24:32;3.95;;;2.42;;
41219;SDS011;26951;47.338;9.196;2023-04-25T04:27:17;4.78;;;2.28;;
41219;SDS011;26951;47.338;9.196;2023-04-25T04:30:03;2.92;;;1.88;;
41219;SDS011;26951;47.338;9.196;2023-04-25T04:32:48;10.13;;;2.95;;
41219;SDS011;26951;47.338;9.196;2023-04-25T04:35:32;5.28;;;2.53;;
41219;SDS011;26951;47.338;9.196;2023-04-25T04:38:16;6.57;;;2.10;;
41219;SDS011;26951;47.338;9.196;2023-04-25T04:41:01;3.30;;;2.30;;
41219;SDS011;26951;47.338;9.196;2023-04-25T04:43:46;3.50;;;2.20;;
41219;SDS011;26951;47.338;9.196;2023-04-25T04:46:30;3.25;;;2.40;;
41219;SDS011;26951;47.338;9.196;2023-04-25T04:49:21;5.00;;;2.83;;
41219;SDS011;26951;47.338;9.196;2023-04-25T04:52:05;4.40;;;2.30;;
41219;SDS011;26951;47.338;9.196;2023-04-25T04:54:49;5.25;;;2.65;;
41219;SDS011;26951;47.338;9.196;2023-04-25T04:57:34;4.00;;;2.70;;
41219;SDS011;26951;47.338;9.196;2023-04-25T05:00:18;3.22;;;2.63;;
41219;SDS011;26951;47.338;9.196;2023-04-25T05:03:04;3.92;;;2.30;;
41219;SDS011;26951;47.338;9.196;2023-04-25T05:05:48;3.25;;;2.25;;
41219;SDS011;26951;47.338;9.196;2023-04-25T05:08:32;2.90;;;2.03;;
41219;SDS011;26951;47.338;9.196;2023-04-25T05:11:16;5.18;;;3.15;;
41219;SDS011;26951;47.338;9.196;2023-04-25T05:14:01;3.35;;;2.13;;
41219;SDS011;26951;47.338;9.196;2023-04-25T05:16:45;3.70;;;2.63;;
41219;SDS011;26951;47.338;9.196;2023-04-25T05:19:29;4.22;;;2.38;;
41219;SDS011;26951;47.338;9.196;2023-04-25T05:22:13;7.65;;;2.67;;
41219;SDS011;26951;47.338;9.196;2023-04-25T05:24:57;2.47;;;2.05;;
41219;SDS011;26951;47.338;9.196;2023-04-25T05:27:41;3.22;;;1.85;;
41219;SDS011;26951;47.338;9.196;2023-04-25T05:30:25;2.90;;;2.38;;
41219;SDS011;26951;47.338;9.196;2023-04-25T05:33:09;1.98;;;1.70;;
41219;SDS011;26951;47.338;9.196;2023-04-25T05:35:53;2.67;;;2.33;;
41219;SDS011;26951;47.338;9.196;2023-04-25T05:38:37;3.08;;;2.50;;
41219;SDS011;26951;47.338;9.196;2023-04-25T05:41:21;3.45;;;2.17;;
41219;SDS011;26951;47.338;9.196;2023-04-25T05:44:05;3.85;;;1.92;;
41219;SDS011;26951;47.338;9.196;2023-04-25T05:46:50;3.10;;;2.20;;
41219;SDS011;26951;47.338;9.196;2023-04-25T05:49:34;6.90;;;2.20;;
41219;SDS011;26951;47.338;9.196;2023-04-25T05:52:18;4.40;;;2.65;;
41219;SDS011;26951;47.338;9.196;2023-04-25T05:55:02;2.42;;;2.03;;
41219;SDS011;26951;47.338;9.196;2023-04-25T05:57:47;5.22;;;2.20;;
41219;SDS011;26951;47.338;9.196;2023-04-25T06:00:31;4.47;;;1.90;;
41219;SDS011;26951;47.338;9.196;2023-04-25T06:03:15;2.60;;;1.80;;
41219;SDS011;26951;47.338;9.196;2023-04-25T06:06:00;2.78;;;2.10;;
41219;SDS011;26951;47.338;9.196;2023-04-25T06:08:44;3.22;;;2.53;;
41219;SDS011;26951;47.338;9.196;2023-04-25T06:11:28;2.72;;;2.20;;
41219;SDS011;26951;47.338;9.196;2023-04-25T06:14:13;4.53;;;2.60;;
41219;SDS011;26951;47.338;9.196;2023-04-25T06:16:57;4.53;;;2.80;;
41219;SDS011;26951;47.338;9.196;2023-04-25T06:19:41;4.22;;;2.35;;
41219;SDS011;26951;47.338;9.196;2023-04-25T06:22:25;6.95;;;2.00;;
41219;SDS011;26951;47.338;9.196;2023-04-25T06:25:10;2.10;;;1.73;;
41219;SDS011;26951;47.338;9.196;2023-04-25T06:27:53;4.70;;;1.95;;
41219;SDS011;26951;47.338;9.196;2023-04-25T06:30:38;3.42;;;1.90;;
41219;SDS011;26951;47.338;9.196;2023-04-25T06:33:22;3.53;;;2.20;;
41219;SDS011;26951;47.338;9.196;2023-04-25T06:38:52;2.30;;;1.80;;
41219;SDS011;26951;47.338;9.196;2023-04-25T06:41:36;3.63;;;2.30;;
41219;SDS011;26951;47.338;9.196;2023-04-25T06:44:20;3.22;;;1.77;;
41219;SDS011;26951;47.338;9.196;2023-04-25T06:47:06;4.28;;;2.20;;
41219;SDS011;26951;47.338;9.196;2023-04-25T06:49:51;4.03;;;1.90;;
41219;SDS011;26951;47.338;9.196;2023-04-25T06:52:34;2.30;;;1.77;;
41219;SDS011;26951;47.338;9.196;2023-04-25T06:55:19;4.22;;;1.73;;
41219;SDS011;26951;47.338;9.196;2023-04-25T06:58:03;3.05;;;1.83;;
41219;SDS011;26951;47.338;9.196;2023-04-25T07:00:47;2.50;;;1.45;;
41219;SDS011;26951;47.338;9.196;2023-04-25T07:03:31;3.17;;;1.70;;
41219;SDS011;26951;47.338;9.196;2023-04-25T07:06:15;4.13;;;1.70;;
41219;SDS011;26951;47.338;9.196;2023-04-25T07:08:59;2.30;;;1.75;;
41219;SDS011;26951;47.338;9.196;2023-04-25T07:11:43;3.83;;;1.80;;
41219;SDS011;26951;47.338;9.196;2023-04-25T07:14:28;2.75;;;2.00;;
41219;SDS011;26951;47.338;9.196;2023-04-25T07:17:12;4.53;;;1.92;;
41219;SDS011;26951;47.338;9.196;2023-04-25T07:19:56;2.78;;;2.20;;
41219;SDS011;26951;47.338;9.196;2023-04-25T07:22:40;3.40;;;1.98;;
41219;SDS011;26951;47.338;9.196;2023-04-25T07:25:24;2.90;;;1.83;;
41219;SDS011;26951;47.338;9.196;2023-04-25T07:28:08;6.30;;;2.20;;
41219;SDS011;26951;47.338;9.196;2023-04-25T07:30:53;3.70;;;2.25;;
41219;SDS011;26951;47.338;9.196;2023-04-25T07:33:37;4.05;;;2.20;;
41219;SDS011;26951;47.338;9.196;2023-04-25T07:36:21;3.45;;;2.28;;
41219;SDS011;26951;47.338;9.196;2023-04-25T07:39:05;4.97;;;1.83;;
41219;SDS011;26951;47.338;9.196;2023-04-25T07:41:50;3.10;;;2.17;;
41219;SDS011;26951;47.338;9.196;2023-04-25T07:44:34;2.35;;;1.90;;
41219;SDS011;26951;47.338;9.196;2023-04-25T07:47:23;3.90;;;2.47;;
41219;SDS011;26951;47.338;9.196;2023-04-25T07:50:07;2.38;;;2.10;;
41219;SDS011;26951;47.338;9.196;2023-04-25T07:52:52;3.42;;;2.35;;
41219;SDS011;26951;47.338;9.196;2023-04-25T07:55:36;4.07;;;2.20;;
41219;SDS011;26951;47.338;9.196;2023-04-25T07:58:23;2.42;;;1.80;;
41219;SDS011;26951;47.338;9.196;2023-04-25T08:01:07;2.28;;;1.90;;
41219;SDS011;26951;47.338;9.196;2023-04-25T08:03:52;2.97;;;2.00;;
41219;SDS011;26951;47.338;9.196;2023-04-25T08:06:36;3.63;;;1.90;;
41219;SDS011;26951;47.338;9.196;2023-04-25T08:09:20;3.60;;;1.85;;
41219;SDS011;26951;47.338;9.196;2023-04-25T08:12:04;2.05;;;1.50;;
41219;SDS011;26951;47.338;9.196;2023-04-25T08:14:48;2.33;;;1.75;;
41219;SDS011;26951;47.338;9.196;2023-04-25T08:17:33;3.15;;;2.00;;
41219;SDS011;26951;47.338;9.196;2023-04-25T08:20:17;2.88;;;2.10;;
41219;SDS011;26951;47.338;9.196;2023-04-25T08:23:01;1.92;;;1.52;;
41219;SDS011;26951;47.338;9.196;2023-04-25T08:25:45;1.98;;;1.50;;
41219;SDS011;26951;47.338;9.196;2023-04-25T08:28:30;2.00;;;1.10;;
41219;SDS011;26951;47.338;9.196;2023-04-25T08:31:15;1.33;;;0.90;;
41219;SDS011;26951;47.338;9.196;2023-04-25T08:33:59;1.30;;;1.05;;
41219;SDS011;26951;47.338;9.196;2023-04-25T08:36:44;1.30;;;0.75;;
41219;SDS011;26951;47.338;9.196;2023-04-25T08:39:28;0.73;;;0.73;;
41219;SDS011;26951;47.338;9.196;2023-04-25T08:42:12;1.17;;;0.70;;
41219;SDS011;26951;47.338;9.196;2023-04-25T08:44:57;1.45;;;1.25;;
41219;SDS011;26951;47.338;9.196;2023-04-25T08:47:45;1.50;;;1.10;;
41219;SDS011;26951;47.338;9.196;2023-04-25T08:50:32;1.52;;;0.90;;
41219;SDS011;26951;47.338;9.196;2023-04-25T08:53:16;0.90;;;0.90;;
41219;SDS011;26951;47.338;9.196;2023-04-25T08:56:05;1.00;;;0.90;;
41219;SDS011;26951;47.338;9.196;2023-04-25T08:58:50;1.92;;;1.10;;
41219;SDS011;26951;47.338;9.196;2023-04-25T09:01:35;1.47;;;1.13;;
41219;SDS011;26951;47.338;9.196;2023-04-25T09:04:19;1.65;;;1.13;;
41219;SDS011;26951;47.338;9.196;2023-04-25T09:07:04;1.75;;;1.30;;
41219;SDS011;26951;47.338;9.196;2023-04-25T09:09:48;1.25;;;1.15;;
41219;SDS011;26951;47.338;9.196;2023-04-25T09:12:32;2.17;;;1.30;;
41219;SDS011;26951;47.338;9.196;2023-04-25T09:15:18;2.17;;;1.30;;
41219;SDS011;26951;47.338;9.196;2023-04-25T09:18:02;1.75;;;1.23;;
41219;SDS011;26951;47.338;9.196;2023-04-25T09:20:46;1.73;;;1.25;;
41219;SDS011;26951;47.338;9.196;2023-04-25T09:23:31;2.30;;;1.38;;
41219;SDS011;26951;47.338;9.196;2023-04-25T09:26:25;1.85;;;1.40;;
41219;SDS011;26951;47.338;9.196;2023-04-25T09:29:09;2.55;;;1.67;;
41219;SDS011;26951;47.338;9.196;2023-04-25T09:31:57;1.75;;;1.50;;
41219;SDS011;26951;47.338;9.196;2023-04-25T09:34:55;3.72;;;1.98;;
41219;SDS011;26951;47.338;9.196;2023-04-25T09:37:40;2.83;;;1.63;;
41219;SDS011;26951;47.338;9.196;2023-04-25T09:40:24;2.60;;;2.10;;
41219;SDS011;26951;47.338;9.196;2023-04-25T09:43:09;2.35;;;1.70;;
41219;SDS011;26951;47.338;9.196;2023-04-25T09:46:02;2.03;;;1.50;;
41219;SDS011;26951;47.338;9.196;2023-04-25T09:48:51;2.38;;;1.60;;
41219;SDS011;26951;47.338;9.196;2023-04-25T09:51:37;2.30;;;1.85;;
41219;SDS011;26951;47.338;9.196;2023-04-25T09:54:21;2.35;;;1.95;;
41219;SDS011;26951;47.338;9.196;2023-04-25T09:57:10;2.38;;;2.00;;
41219;SDS011;26951;47.338;9.196;2023-04-25T09:59:59;2.67;;;2.10;;
41219;SDS011;26951;47.338;9.196;2023-04-25T10:02:44;5.40;;;2.40;;
41219;SDS011;26951;47.338;9.196;2023-04-25T10:05:30;4.72;;;2.00;;
41219;SDS011;26951;47.338;9.196;2023-04-25T10:08:18;3.63;;;2.13;;
41219;SDS011;26951;47.338;9.196;2023-04-25T10:11:05;3.00;;;2.33;;
41219;SDS011;26951;47.338;9.196;2023-04-25T10:13:50;3.08;;;2.40;;
41219;SDS011;26951;47.338;9.196;2023-04-25T10:16:36;4.95;;;2.08;;
41219;SDS011;26951;47.338;9.196;2023-04-25T10:19:22;5.03;;;2.35;;
41219;SDS011;26951;47.338;9.196;2023-04-25T10:22:17;2.70;;;1.90;;
41219;SDS011;26951;47.338;9.196;2023-04-25T10:25:17;2.95;;;2.28;;
41219;SDS011;26951;47.338;9.196;2023-04-25T10:28:03;2.60;;;2.40;;
41219;SDS011;26951;47.338;9.196;2023-04-25T10:30:56;3.50;;;2.53;;
41219;SDS011;26951;47.338;9.196;2023-04-25T10:33:44;3.30;;;2.45;;
41219;SDS011;26951;47.338;9.196;2023-04-25T10:36:30;6.43;;;2.55;;
41219;SDS011;26951;47.338;9.196;2023-04-25T10:39:15;2.83;;;2.13;;
41219;SDS011;26951;47.338;9.196;2023-04-25T10:42:06;4.20;;;2.28;;
41219;SDS011;26951;47.338;9.196;2023-04-25T10:45:01;2.15;;;1.80;;
41219;SDS011;26951;47.338;9.196;2023-04-25T10:47:48;2.20;;;1.80;;
41219;SDS011;26951;47.338;9.196;2023-04-25T10:50:38;2.38;;;1.20;;
41219;SDS011;26951;47.338;9.196;2023-04-25T10:53:25;1.50;;;1.40;;
41219;SDS011;26951;47.338;9.196;2023-04-25T10:56:17;1.17;;;1.02;;
41219;SDS011;26951;47.338;9.196;2023-04-25T10:59:15;1.23;;;1.00;;
41219;SDS011;26951;47.338;9.196;2023-04-25T11:02:00;1.63;;;1.52;;
41219;SDS011;26951;47.338;9.196;2023-04-25T11:04:55;1.10;;;1.00;;
41219;SDS011;26951;47.338;9.196;2023-04-25T11:10:40;0.73;;;0.60;;
41219;SDS011;26951;47.338;9.196;2023-04-25T11:13:28;1.10;;;0.90;;
41219;SDS011;26951;47.338;9.196;2023-04-25T11:16:14;0.82;;;0.82;;
41219;SDS011;26951;47.338;9.196;2023-04-25T11:18:58;0.95;;;0.80;;
41219;SDS011;26951;47.338;9.196;2023-04-25T11:21:42;1.05;;;0.95;;
41219;SDS011;26951;47.338;9.196;2023-04-25T11:24:27;0.82;;;0.68;;
41219;SDS011;26951;47.338;9.196;2023-04-25T11:27:15;1.20;;;1.10;;
41219;SDS011;26951;47.338;9.196;2023-04-25T11:29:59;1.58;;;1.25;;
41219;SDS011;26951;47.338;9.196;2023-04-25T11:32:57;1.23;;;1.13;;
41219;SDS011;26951;47.338;9.196;2023-04-25T11:35:41;1.70;;;1.42;;
41219;SDS011;26951;47.338;9.196;2023-04-25T11:38:26;2.00;;;1.73;;
41219;SDS011;26951;47.338;9.196;2023-04-25T11:41:10;2.50;;;1.80;;
41219;SDS011;26951;47.338;9.196;2023-04-25T11:43:55;1.88;;;1.45;;
41219;SDS011;26951;47.338;9.196;2023-04-25T11:46:39;2.75;;;2.10;;
41219;SDS011;26951;47.338;9.196;2023-04-25T11:49:23;1.80;;;1.30;;
41219;SDS011;26951;47.338;9.196;2023-04-25T11:52:08;1.10;;;1.00;;
41219;SDS011;26951;47.338;9.196;2023-04-25T11:54:52;3.28;;;1.15;;
41219;SDS011;26951;47.338;9.196;2023-04-25T11:57:39;0.70;;;0.70;;
41219;SDS011;26951;47.338;9.196;2023-04-25T12:00:24;1.00;;;0.88;;
41219;SDS011;26951;47.338;9.196;2023-04-25T12:03:09;0.60;;;0.60;;
41219;SDS011;26951;47.338;9.196;2023-04-25T12:05:53;0.85;;;0.80;;
41219;SDS011;26951;47.338;9.196;2023-04-25T12:09:00;1.00;;;1.00;;
41219;SDS011;26951;47.338;9.196;2023-04-25T12:11:48;0.70;;;0.70;;
41219;SDS011;26951;47.338;9.196;2023-04-25T12:14:37;0.95;;;0.95;;
41219;SDS011;26951;47.338;9.196;2023-04-25T12:17:21;2.50;;;1.85;;
41219;SDS011;26951;47.338;9.196;2023-04-25T12:20:07;1.70;;;1.60;;
41219;SDS011;26951;47.338;9.196;2023-04-25T12:22:53;1.30;;;1.20;;
41219;SDS011;26951;47.338;9.196;2023-04-25T12:28:25;2.15;;;1.17;;
41219;SDS011;26951;47.338;9.196;2023-04-25T12:31:14;2.50;;;1.40;;
41219;SDS011;26951;47.338;9.196;2023-04-25T12:33:59;1.60;;;1.50;;
41219;SDS011;26951;47.338;9.196;2023-04-25T12:36:43;1.67;;;1.58;;
41219;SDS011;26951;47.338;9.196;2023-04-25T12:39:28;1.67;;;1.50;;
41219;SDS011;26951;47.338;9.196;2023-04-25T12:42:12;1.60;;;1.50;;
41219;SDS011;26951;47.338;9.196;2023-04-25T12:44:56;2.17;;;1.80;;
41219;SDS011;26951;47.338;9.196;2023-04-25T12:47:40;2.08;;;1.88;;
41219;SDS011;26951;47.338;9.196;2023-04-25T12:50:24;1.70;;;1.55;;
41219;SDS011;26951;47.338;9.196;2023-04-25T12:53:10;1.50;;;1.40;;
41219;SDS011;26951;47.338;9.196;2023-04-25T12:55:55;2.10;;;1.75;;
41219;SDS011;26951;47.338;9.196;2023-04-25T12:58:39;1.95;;;1.70;;
41219;SDS011;26951;47.338;9.196;2023-04-25T13:01:25;2.28;;;1.77;;
41219;SDS011;26951;47.338;9.196;2023-04-25T13:04:10;2.55;;;1.50;;
41219;SDS011;26951;47.338;9.196;2023-04-25T13:06:54;1.70;;;1.58;;
41219;SDS011;26951;47.338;9.196;2023-04-25T13:09:38;3.58;;;1.40;;
41219;SDS011;26951;47.338;9.196;2023-04-25T13:12:22;1.63;;;1.42;;
41219;SDS011;26951;47.338;9.196;2023-04-25T13:15:07;1.33;;;1.20;;
41219;SDS011;26951;47.338;9.196;2023-04-25T13:17:52;1.35;;;1.10;;
41219;SDS011;26951;47.338;9.196;2023-04-25T13:20:57;1.67;;;1.40;;
41219;SDS011;26951;47.338;9.196;2023-04-25T13:23:43;1.45;;;1.35;;
41219;SDS011;26951;47.338;9.196;2023-04-25T13:26:28;1.60;;;1.50;;
41219;SDS011;26951;47.338;9.196;2023-04-25T13:29:12;2.45;;;1.70;;
41219;SDS011;26951;47.338;9.196;2023-04-25T13:31:56;2.25;;;1.65;;
41219;SDS011;26951;47.338;9.196;2023-04-25T13:34:41;2.22;;;2.03;;
41219;SDS011;26951;47.338;9.196;2023-04-25T13:37:25;5.40;;;2.17;;
41219;SDS011;26951;47.338;9.196;2023-04-25T13:40:10;4.13;;;1.90;;
41219;SDS011;26951;47.338;9.196;2023-04-25T13:42:55;1.90;;;1.70;;
41219;SDS011;26951;47.338;9.196;2023-04-25T13:45:39;2.03;;;1.80;;
41219;SDS011;26951;47.338;9.196;2023-04-25T13:48:24;3.03;;;2.15;;
41219;SDS011;26951;47.338;9.196;2023-04-25T13:51:08;2.67;;;2.20;;
41219;SDS011;26951;47.338;9.196;2023-04-25T13:53:53;5.10;;;2.13;;
41219;SDS011;26951;47.338;9.196;2023-04-25T13:56:37;1.73;;;1.63;;
41219;SDS011;26951;47.338;9.196;2023-04-25T13:59:21;2.08;;;1.38;;
41219;SDS011;26951;47.338;9.196;2023-04-25T14:02:06;2.05;;;1.65;;
41219;SDS011;26951;47.338;9.196;2023-04-25T14:04:51;1.52;;;1.40;;
41219;SDS011;26951;47.338;9.196;2023-04-25T14:07:35;1.38;;;1.27;;
41219;SDS011;26951;47.338;9.196;2023-04-25T14:10:20;3.38;;;1.52;;
41219;SDS011;26951;47.338;9.196;2023-04-25T14:13:04;1.98;;;1.77;;
41219;SDS011;26951;47.338;9.196;2023-04-25T14:15:49;1.67;;;1.45;;
41219;SDS011;26951;47.338;9.196;2023-04-25T14:18:33;1.95;;;1.55;;
41219;SDS011;26951;47.338;9.196;2023-04-25T14:21:17;3.03;;;1.92;;
41219;SDS011;26951;47.338;9.196;2023-04-25T14:24:02;2.63;;;1.67;;
41219;SDS011;26951;47.338;9.196;2023-04-25T14:26:46;1.55;;;1.45;;
41219;SDS011;26951;47.338;9.196;2023-04-25T14:29:30;2.20;;;1.83;;
41219;SDS011;26951;47.338;9.196;2023-04-25T14:32:14;2.40;;;2.03;;
41219;SDS011;26951;47.338;9.196;2023-04-25T14:34:59;2.38;;;1.80;;
41219;SDS011;26951;47.338;9.196;2023-04-25T14:37:43;2.67;;;1.85;;
41219;SDS011;26951;47.338;9.196;2023-04-25T14:40:28;2.53;;;2.05;;
41219;SDS011;26951;47.338;9.196;2023-04-25T14:43:12;3.08;;;2.22;;
41219;SDS011;26951;47.338;9.196;2023-04-25T14:45:56;2.90;;;2.00;;
41219;SDS011;26951;47.338;9.196;2023-04-25T14:48:40;3.38;;;1.92;;
41219;SDS011;26951;47.338;9.196;2023-04-25T14:51:25;2.20;;;1.80;;
41219;SDS011;26951;47.338;9.196;2023-04-25T14:54:10;1.90;;;1.63;;
41219;SDS011;26951;47.338;9.196;2023-04-25T14:56:55;1.85;;;1.60;;
41219;SDS011;26951;47.338;9.196;2023-04-25T14:59:40;1.60;;;1.50;;
41219;SDS011;26951;47.338;9.196;2023-04-25T15:02:25;1.67;;;1.40;;
41219;SDS011;26951;47.338;9.196;2023-04-25T15:05:09;1.87;;;1.67;;
41219;SDS011;26951;47.338;9.196;2023-04-25T15:07:53;1.77;;;1.60;;
41219;SDS011;26951;47.338;9.196;2023-04-25T15:10:37;2.50;;;1.65;;
41219;SDS011;26951;47.338;9.196;2023-04-25T15:13:22;1.88;;;1.60;;
41219;SDS011;26951;47.338;9.196;2023-04-25T15:16:06;2.70;;;2.30;;
41219;SDS011;26951;47.338;9.196;2023-04-25T15:18:50;3.60;;;1.90;;
41219;SDS011;26951;47.338;9.196;2023-04-25T15:21:34;2.63;;;1.67;;
41219;SDS011;26951;47.338;9.196;2023-04-25T15:24:18;2.05;;;1.73;;
41219;SDS011;26951;47.338;9.196;2023-04-25T15:27:03;1.92;;;1.55;;
41219;SDS011;26951;47.338;9.196;2023-04-25T15:29:47;2.00;;;1.60;;
41219;SDS011;26951;47.338;9.196;2023-04-25T15:32:32;2.05;;;1.52;;
41219;SDS011;26951;47.338;9.196;2023-04-25T15:35:16;1.27;;;1.17;;
41219;SDS011;26951;47.338;9.196;2023-04-25T15:38:00;2.20;;;1.40;;
41219;SDS011;26951;47.338;9.196;2023-04-25T15:40:45;2.33;;;1.15;;
41219;SDS011;26951;47.338;9.196;2023-04-25T15:43:29;1.70;;;1.55;;
41219;SDS011;26951;47.338;9.196;2023-04-25T15:46:13;1.30;;;1.20;;
41219;SDS011;26951;47.338;9.196;2023-04-25T15:48:58;1.63;;;1.45;;
41219;SDS011;26951;47.338;9.196;2023-04-25T15:51:42;1.27;;;1.17;;
41219;SDS011;26951;47.338;9.196;2023-04-25T15:54:27;1.30;;;1.20;;
41219;SDS011;26951;47.338;9.196;2023-04-25T15:57:11;1.48;;;1.30;;
41219;SDS011;26951;47.338;9.196;2023-04-25T15:59:55;1.53;;;1.10;;
41219;SDS011;26951;47.338;9.196;2023-04-25T16:02:41;1.48;;;1.30;;
41219;SDS011;26951;47.338;9.196;2023-04-25T16:05:27;1.40;;;1.30;;
41219;SDS011;26951;47.338;9.196;2023-04-25T16:08:11;2.75;;;1.58;;
41219;SDS011;26951;47.338;9.196;2023-04-25T16:10:55;1.27;;;1.17;;
41219;SDS011;26951;47.338;9.196;2023-04-25T16:13:40;1.80;;;1.27;;
41219;SDS011;26951;47.338;9.196;2023-04-25T16:16:24;1.85;;;1.30;;
41219;SDS011;26951;47.338;9.196;2023-04-25T16:19:09;1.92;;;1.67;;
41219;SDS011;26951;47.338;9.196;2023-04-25T16:21:53;1.65;;;1.50;;
41219;SDS011;26951;47.338;9.196;2023-04-25T16:24:38;1.30;;;1.20;;
41219;SDS011;26951;47.338;9.196;2023-04-25T16:27:22;1.80;;;1.45;;
41219;SDS011;26951;47.338;9.196;2023-04-25T16:30:06;1.73;;;1.50;;
41219;SDS011;26951;47.338;9.196;2023-04-25T16:32:52;1.40;;;1.30;;
41219;SDS011;26951;47.338;9.196;2023-04-25T16:35:36;1.73;;;1.40;;
41219;SDS011;26951;47.338;9.196;2023-04-25T16:38:20;1.60;;;1.50;;
41219;SDS011;26951;47.338;9.196;2023-04-25T16:41:05;1.98;;;1.60;;
41219;SDS011;26951;47.338;9.196;2023-04-25T16:43:49;1.60;;;1.40;;
41219;SDS011;26951;47.338;9.196;2023-04-25T16:46:33;1.98;;;1.48;;